createdAt,value
2024-03-14T00:00:34.728Z,71.53
2024-03-14T00:01:34.559Z,68.89
2024-03-14T00:02:34.493Z,72.92
2024-03-14T00:03:34.520Z,72.66
2024-03-14T00:04:34.472Z,71.44
2024-03-14T00:05:34.501Z,73.97
2024-03-14T00:06:34.460Z,71.36
2024-03-14T00:07:34.415Z,72.92
2024-03-14T00:08:34.397Z,71.10
2024-03-14T00:09:34.406Z,72.52
2024-03-14T00:10:35.389Z,71.45
2024-03-14T00:11:34.412Z,72.75
2024-03-14T00:12:34.370Z,72.39
2024-03-14T00:13:34.290Z,73.47
2024-03-14T00:14:34.298Z,73.77
2024-03-14T00:15:34.322Z,73.84
2024-03-14T00:16:34.278Z,73.59
2024-03-14T00:17:34.401Z,74.19
2024-03-14T00:18:34.510Z,72.28
2024-03-14T00:19:34.190Z,71.11
2024-03-14T00:20:34.168Z,73.81
2024-03-14T00:21:34.305Z,72.16
2024-03-14T00:22:34.152Z,71.63
2024-03-14T00:23:34.118Z,72.12
2024-03-14T00:24:34.195Z,75.12
2024-03-14T00:25:34.114Z,72.88
2024-03-14T00:26:34.101Z,70.95
2024-03-14T00:27:34.101Z,72.19
2024-03-14T00:28:34.023Z,71.47
2024-03-14T00:29:34.008Z,69.93
2024-03-14T00:30:34.053Z,73.56
2024-03-14T00:31:33.990Z,71.95
2024-03-14T00:32:34.002Z,73.37
2024-03-14T00:33:34.069Z,72.53
2024-03-14T00:34:33.913Z,74.07
2024-03-14T00:35:33.915Z,73.46
2024-03-14T00:36:33.989Z,74.57
2024-03-14T00:37:33.913Z,70.43
2024-03-14T00:38:33.864Z,73.65
2024-03-14T00:39:33.998Z,75.72
2024-03-14T00:40:33.820Z,71.85
2024-03-14T00:41:33.795Z,72.80
2024-03-14T00:42:33.844Z,72.00
2024-03-14T00:43:33.773Z,72.15
2024-03-14T00:44:33.754Z,72.51
2024-03-14T00:45:33.807Z,69.37
2024-03-14T00:46:33.715Z,72.07
2024-03-14T00:47:33.756Z,71.76
2024-03-14T00:48:33.802Z,71.47
2024-03-14T00:49:33.673Z,70.46
2024-03-14T00:50:33.649Z,70.64
2024-03-14T00:51:33.702Z,70.60
2024-03-14T00:52:33.643Z,71.52
2024-03-14T00:53:33.595Z,69.68
2024-03-14T00:54:33.689Z,68.21
2024-03-14T00:55:33.596Z,74.04
2024-03-14T00:56:33.542Z,71.81
2024-03-14T00:57:33.674Z,72.29
2024-03-14T00:58:33.510Z,72.58
2024-03-14T00:59:33.500Z,70.03
2024-03-14T01:00:33.507Z,71.78
2024-03-14T01:01:33.479Z,71.41
2024-03-14T01:02:33.435Z,65.58
2024-03-14T01:03:33.450Z,71.91
2024-03-14T01:04:33.414Z,71.55
2024-03-14T01:05:33.405Z,73.72
2024-03-14T01:06:33.388Z,74.90
2024-03-14T01:07:33.366Z,74.16
2024-03-14T01:08:33.360Z,71.52
2024-03-14T01:09:33.320Z,74.80
2024-03-14T01:10:33.285Z,72.06
2024-03-14T01:11:33.322Z,70.45
2024-03-14T01:12:33.320Z,70.55
2024-03-14T01:13:33.274Z,71.60
2024-03-14T01:14:33.249Z,72.20
2024-03-14T01:15:33.243Z,72.73
2024-03-14T01:16:33.200Z,71.86
2024-03-14T01:17:33.204Z,71.87
2024-03-14T01:18:33.290Z,72.49
2024-03-14T01:19:33.159Z,72.23
2024-03-14T01:20:33.837Z,72.39
2024-03-14T01:21:33.182Z,69.60
2024-03-14T01:22:33.122Z,72.66
2024-03-14T01:23:33.064Z,70.09
2024-03-14T01:24:33.147Z,72.91
2024-03-14T01:25:33.056Z,71.69
2024-03-14T01:26:33.012Z,71.87
2024-03-14T01:27:33.081Z,73.75
2024-03-14T01:28:32.971Z,72.18
2024-03-14T01:29:32.975Z,72.79
2024-03-14T01:30:33.036Z,73.92
2024-03-14T01:31:32.918Z,70.59
2024-03-14T01:32:32.981Z,72.42
2024-03-14T01:33:33.016Z,71.75
2024-03-14T01:34:32.888Z,72.12
2024-03-14T01:35:32.886Z,72.69
2024-03-14T01:36:32.927Z,72.71
2024-03-14T01:37:32.831Z,72.12
2024-03-14T01:38:32.812Z,72.09
2024-03-14T01:39:32.880Z,73.40
2024-03-14T01:40:32.779Z,74.29
2024-03-14T01:41:32.795Z,74.18
2024-03-14T01:42:32.784Z,70.22
2024-03-14T01:43:32.725Z,73.12
2024-03-14T01:44:32.721Z,72.85
2024-03-14T01:45:32.728Z,72.63
2024-03-14T01:46:32.720Z,71.33
2024-03-14T01:47:32.722Z,73.87
2024-03-14T01:48:32.781Z,72.28
2024-03-14T01:49:32.636Z,66.65
2024-03-14T01:50:32.670Z,69.12
2024-03-14T01:51:32.619Z,74.46
2024-03-14T01:52:32.578Z,72.17
2024-03-14T01:53:32.553Z,72.48
2024-03-14T01:54:32.544Z,75.74
2024-03-14T01:55:32.526Z,73.73
2024-03-14T01:56:32.585Z,71.37
2024-03-14T01:57:32.561Z,71.54
2024-03-14T01:58:32.498Z,75.04
2024-03-14T01:59:32.490Z,73.06
2024-03-14T02:00:32.476Z,71.30
2024-03-14T02:01:32.480Z,71.98
2024-03-14T02:02:32.436Z,71.77
2024-03-14T02:03:32.433Z,73.85
2024-03-14T02:04:32.363Z,72.65
2024-03-14T02:05:32.347Z,73.57
2024-03-14T02:06:32.388Z,72.06
2024-03-14T02:07:32.322Z,73.78
2024-03-14T02:08:32.297Z,74.62
2024-03-14T02:09:32.282Z,73.30
2024-03-14T02:10:32.273Z,69.11
2024-03-14T02:11:32.256Z,68.02
2024-03-14T02:12:32.255Z,72.81
2024-03-14T02:13:32.220Z,71.54
2024-03-14T02:14:32.204Z,73.24
2024-03-14T02:15:32.195Z,71.56
2024-03-14T02:16:33.155Z,72.95
2024-03-14T02:17:32.212Z,69.44
2024-03-14T02:18:32.299Z,72.20
2024-03-14T02:19:32.110Z,74.98
2024-03-14T02:20:32.933Z,74.08
2024-03-14T02:21:32.086Z,72.25
2024-03-14T02:22:32.054Z,73.03
2024-03-14T02:23:32.054Z,75.38
2024-03-14T02:24:32.056Z,70.57
2024-03-14T02:25:33.069Z,75.23
2024-03-14T02:26:31.983Z,72.13
2024-03-14T02:27:32.030Z,72.86
2024-03-14T02:28:31.962Z,74.61
2024-03-14T02:29:31.964Z,73.80
2024-03-14T02:30:31.983Z,73.28
2024-03-14T02:31:31.896Z,70.83
2024-03-14T02:32:31.917Z,72.92
2024-03-14T02:33:32.021Z,72.72
2024-03-14T02:34:31.851Z,71.81
2024-03-14T02:35:31.839Z,73.13
2024-03-14T02:36:31.810Z,71.92
2024-03-14T02:37:31.804Z,71.86
2024-03-14T02:38:31.776Z,72.90
2024-03-14T02:39:31.794Z,72.11
2024-03-14T02:40:31.780Z,72.94
2024-03-14T02:41:31.722Z,70.85
2024-03-14T02:42:32.776Z,71.49
2024-03-14T02:43:31.702Z,70.13
2024-03-14T02:44:31.683Z,74.92
2024-03-14T02:45:31.689Z,73.87
2024-03-14T02:46:31.654Z,73.35
2024-03-14T02:47:31.651Z,72.02
2024-03-14T02:48:31.712Z,74.86
2024-03-14T02:49:31.595Z,72.29
2024-03-14T02:50:31.577Z,72.25
2024-03-14T02:51:31.605Z,72.66
2024-03-14T02:52:31.545Z,73.87
2024-03-14T02:53:31.533Z,72.31
2024-03-14T02:54:31.595Z,71.37
2024-03-14T02:55:31.486Z,73.80
2024-03-14T02:56:31.522Z,74.70
2024-03-14T02:57:31.542Z,73.59
2024-03-14T02:58:31.445Z,74.73
2024-03-14T02:59:31.409Z,70.63
2024-03-14T03:00:31.498Z,73.29
2024-03-14T03:01:31.423Z,71.72
2024-03-14T03:02:31.381Z,73.08
2024-03-14T03:03:31.378Z,73.26
2024-03-14T03:04:31.336Z,72.04
2024-03-14T03:05:31.324Z,68.43
2024-03-14T03:06:31.308Z,75.70
2024-03-14T03:07:31.291Z,73.12
2024-03-14T03:08:31.259Z,73.09
2024-03-14T03:09:31.324Z,73.27
2024-03-14T03:10:31.245Z,71.39
2024-03-14T03:11:31.235Z,73.40
2024-03-14T03:12:31.274Z,74.60
2024-03-14T03:13:31.175Z,72.42
2024-03-14T03:14:31.184Z,74.78
2024-03-14T03:15:31.201Z,74.79
2024-03-14T03:16:31.140Z,75.68
2024-03-14T03:17:31.181Z,74.98
2024-03-14T03:18:31.130Z,76.31
2024-03-14T03:19:31.106Z,73.73
2024-03-14T03:20:31.059Z,74.22
2024-03-14T03:21:31.067Z,73.08
2024-03-14T03:22:31.029Z,74.40
2024-03-14T03:23:31.043Z,73.97
2024-03-14T03:24:31.031Z,75.56
2024-03-14T03:25:30.978Z,73.70
2024-03-14T03:26:30.963Z,74.53
2024-03-14T03:27:31.005Z,73.45
2024-03-14T03:28:30.958Z,73.85
2024-03-14T03:29:30.921Z,70.51
2024-03-14T03:30:31.107Z,73.76
2024-03-14T03:31:30.892Z,72.43
2024-03-14T03:32:30.890Z,76.07
2024-03-14T03:33:30.907Z,75.14
2024-03-14T03:34:30.837Z,73.78
2024-03-14T03:35:30.815Z,75.41
2024-03-14T03:36:30.897Z,75.81
2024-03-14T03:37:30.790Z,71.40
2024-03-14T03:38:30.778Z,72.60
2024-03-14T03:39:30.841Z,74.34
2024-03-14T03:40:30.741Z,73.87
2024-03-14T03:41:30.737Z,75.17
2024-03-14T03:42:30.709Z,74.40
2024-03-14T03:43:30.678Z,77.08
2024-03-14T03:44:30.678Z,73.81
2024-03-14T03:45:30.730Z,75.17
2024-03-14T03:46:30.615Z,73.45
2024-03-14T03:47:30.679Z,76.65
2024-03-14T03:48:30.696Z,74.42
2024-03-14T03:49:30.596Z,74.31
2024-03-14T03:50:30.548Z,73.90
2024-03-14T03:51:30.627Z,73.15
2024-03-14T03:52:30.519Z,74.54
2024-03-14T03:53:30.518Z,73.85
2024-03-14T03:54:30.508Z,75.38
2024-03-14T03:55:30.490Z,75.96
2024-03-14T03:57:02.682Z,72.80
2024-03-14T03:57:30.558Z,74.74
2024-03-14T03:58:30.440Z,73.65
2024-03-14T03:59:30.424Z,75.86
2024-03-14T04:00:30.454Z,75.03
2024-03-14T04:01:30.404Z,75.75
2024-03-14T04:02:30.331Z,73.64
2024-03-14T04:03:31.434Z,74.83
2024-03-14T04:04:30.321Z,74.50
2024-03-14T04:05:30.336Z,76.12
2024-03-14T04:06:30.303Z,73.98
2024-03-14T04:07:30.246Z,75.35
2024-03-14T04:08:30.258Z,73.70
2024-03-14T04:09:30.235Z,76.69
2024-03-14T04:10:30.247Z,71.80
2024-03-14T04:11:30.270Z,74.12
2024-03-14T04:12:31.694Z,74.56
2024-03-14T04:14:02.326Z,74.47
2024-03-14T04:14:30.158Z,75.39
2024-03-14T04:15:30.330Z,76.18
2024-03-14T04:16:30.185Z,74.78
2024-03-14T04:17:30.113Z,73.44
2024-03-14T04:18:30.194Z,74.83
2024-03-14T04:19:30.072Z,75.26
2024-03-14T04:20:30.043Z,73.33
2024-03-14T04:21:30.127Z,74.15
2024-03-14T04:22:30.011Z,75.68
2024-03-14T04:23:30.001Z,75.13
2024-03-14T04:24:29.985Z,74.90
2024-03-14T04:25:29.957Z,75.56
2024-03-14T04:26:29.961Z,75.61
2024-03-14T04:27:30.350Z,73.54
2024-03-14T04:28:29.901Z,75.01
2024-03-14T04:29:29.894Z,74.38
2024-03-14T04:30:30.142Z,74.11
2024-03-14T04:31:29.862Z,76.99
2024-03-14T04:32:29.851Z,74.57
2024-03-14T04:33:29.910Z,73.63
2024-03-14T04:34:29.799Z,76.37
2024-03-14T04:35:29.792Z,76.15
2024-03-14T04:36:29.786Z,75.82
2024-03-14T04:37:29.780Z,75.37
2024-03-14T04:38:29.738Z,75.67
2024-03-14T04:39:29.751Z,75.14
2024-03-14T04:40:29.694Z,75.23
2024-03-14T04:41:29.686Z,74.78
2024-03-14T04:42:29.713Z,75.89
2024-03-14T04:43:29.657Z,77.09
2024-03-14T04:44:29.706Z,77.10
2024-03-14T04:45:29.699Z,75.69
2024-03-14T04:46:29.617Z,75.68
2024-03-14T04:47:29.619Z,76.14
2024-03-14T04:48:29.696Z,73.66
2024-03-14T04:49:29.545Z,75.66
2024-03-14T04:50:29.539Z,75.94
2024-03-14T04:51:29.583Z,74.56
2024-03-14T04:52:29.497Z,75.44
2024-03-14T04:53:29.503Z,73.69
2024-03-14T04:54:29.558Z,75.55
2024-03-14T04:55:29.431Z,74.82
2024-03-14T04:56:29.441Z,75.62
2024-03-14T04:57:29.464Z,74.89
2024-03-14T04:58:29.419Z,75.95
2024-03-14T04:59:29.380Z,73.90
2024-03-14T05:00:29.443Z,76.09
2024-03-14T05:01:29.418Z,75.85
2024-03-14T05:02:29.324Z,75.15
2024-03-14T05:03:29.327Z,75.09
2024-03-14T05:04:29.289Z,75.13
2024-03-14T05:05:29.262Z,74.69
2024-03-14T05:06:29.396Z,75.25
2024-03-14T05:07:29.246Z,75.91
2024-03-14T05:08:29.226Z,73.95
2024-03-14T05:09:29.337Z,76.17
2024-03-14T05:10:29.175Z,75.62
2024-03-14T05:11:29.201Z,75.25
2024-03-14T05:12:29.262Z,76.01
2024-03-14T05:13:29.688Z,77.01
2024-03-14T05:14:29.129Z,75.66
2024-03-14T05:15:29.155Z,75.44
2024-03-14T05:16:29.883Z,75.09
2024-03-14T05:17:29.075Z,76.85
2024-03-14T05:18:29.104Z,74.38
2024-03-14T05:19:29.592Z,73.84
2024-03-14T05:20:29.052Z,75.70
2024-03-14T05:21:29.072Z,74.47
2024-03-14T05:22:28.994Z,77.16
2024-03-14T05:23:28.996Z,75.40
2024-03-14T05:24:29.120Z,74.66
2024-03-14T05:25:28.925Z,73.84
2024-03-14T05:26:28.934Z,75.75
2024-03-14T05:27:28.965Z,76.51
2024-03-14T05:28:28.862Z,76.46
2024-03-14T05:29:28.869Z,75.43
2024-03-14T05:30:28.899Z,75.23
2024-03-14T05:31:28.814Z,76.61
2024-03-14T05:32:28.848Z,77.63
2024-03-14T05:33:28.861Z,76.62
2024-03-14T05:34:28.771Z,75.33
2024-03-14T05:35:28.782Z,76.93
2024-03-14T05:36:28.835Z,76.59
2024-03-14T05:37:28.977Z,76.59
2024-03-14T05:38:28.709Z,75.36
2024-03-14T05:39:28.795Z,77.98
2024-03-14T05:40:28.699Z,77.03
2024-03-14T05:41:28.646Z,75.43
2024-03-14T05:42:28.661Z,76.11
2024-03-14T05:43:28.631Z,75.83
2024-03-14T05:44:28.613Z,75.50
2024-03-14T05:45:28.750Z,76.73
2024-03-14T05:46:28.561Z,77.21
2024-03-14T05:47:28.594Z,77.61
2024-03-14T05:48:28.609Z,77.03
2024-03-14T05:49:28.521Z,75.32
2024-03-14T05:50:28.507Z,76.45
2024-03-14T05:51:28.581Z,76.42
2024-03-14T05:52:28.477Z,75.97
2024-03-14T05:53:28.477Z,77.93
2024-03-14T05:54:29.541Z,75.82
2024-03-14T05:55:28.416Z,75.18
2024-03-14T05:56:28.416Z,76.23
2024-03-14T05:57:28.561Z,77.16
2024-03-14T05:58:28.358Z,77.40
2024-03-14T05:59:28.360Z,78.04
2024-03-14T06:00:28.365Z,75.79
2024-03-14T06:01:28.406Z,74.39
2024-03-14T06:02:28.309Z,76.82
2024-03-14T06:03:28.304Z,76.06
2024-03-14T06:04:28.262Z,76.88
2024-03-14T06:05:28.261Z,76.35
2024-03-14T06:06:28.392Z,74.48
2024-03-14T06:07:28.228Z,77.55
2024-03-14T06:08:28.206Z,75.60
2024-03-14T06:09:28.182Z,76.12
2024-03-14T06:10:28.175Z,77.41
2024-03-14T06:11:28.199Z,78.32
2024-03-14T06:12:28.512Z,77.05
2024-03-14T06:13:28.125Z,77.21
2024-03-14T06:14:28.106Z,77.17
2024-03-14T06:15:28.115Z,77.05
2024-03-14T06:16:28.078Z,76.35
2024-03-14T06:17:28.185Z,76.81
2024-03-14T06:18:28.146Z,77.16
2024-03-14T06:19:28.019Z,77.74
2024-03-14T06:20:28.011Z,77.22
2024-03-14T06:21:28.093Z,74.73
2024-03-14T06:22:27.984Z,76.14
2024-03-14T06:23:27.961Z,76.79
2024-03-14T06:24:28.040Z,77.20
2024-03-14T06:25:27.917Z,76.27
2024-03-14T06:26:27.881Z,75.08
2024-03-14T06:27:27.985Z,75.34
2024-03-14T06:28:27.861Z,74.96
2024-03-14T06:29:27.860Z,76.64
2024-03-14T06:30:28.409Z,77.13
2024-03-14T06:31:28.815Z,77.18
2024-03-14T06:32:27.795Z,76.34
2024-03-14T06:33:27.893Z,75.18
2024-03-14T06:34:27.761Z,76.49
2024-03-14T06:35:27.745Z,75.38
2024-03-14T06:36:27.793Z,76.68
2024-03-14T06:37:27.732Z,76.05
2024-03-14T06:38:27.718Z,74.83
2024-03-14T06:39:27.918Z,77.17
2024-03-14T06:40:27.653Z,74.78
2024-03-14T06:41:28.651Z,74.75
2024-03-14T06:42:27.661Z,75.51
2024-03-14T06:43:27.647Z,76.05
2024-03-14T06:44:27.597Z,76.94
2024-03-14T06:45:27.629Z,74.89
2024-03-14T06:46:28.391Z,76.53
2024-03-14T06:47:27.564Z,74.45
2024-03-14T06:48:27.618Z,75.70
2024-03-14T06:49:27.512Z,75.33
2024-03-14T06:50:27.492Z,75.40
2024-03-14T06:51:27.597Z,77.52
2024-03-14T06:52:27.466Z,76.15
2024-03-14T06:53:27.436Z,76.97
2024-03-14T06:54:27.429Z,76.88
2024-03-14T06:55:27.410Z,76.01
2024-03-14T06:56:27.415Z,74.76
2024-03-14T06:57:27.389Z,75.49
2024-03-14T06:58:27.341Z,75.92
2024-03-14T06:59:27.374Z,74.30
2024-03-14T07:00:27.331Z,75.30
2024-03-14T07:01:27.311Z,75.53
2024-03-14T07:02:27.242Z,74.12
2024-03-14T07:03:27.391Z,73.07
2024-03-14T07:04:27.286Z,75.41
2024-03-14T07:05:27.194Z,75.33
2024-03-14T07:06:27.216Z,73.51
2024-03-14T07:07:27.154Z,73.60
2024-03-14T07:08:27.119Z,74.09
2024-03-14T07:09:27.146Z,75.42
2024-03-14T07:10:27.102Z,75.09
2024-03-14T07:11:27.087Z,76.55
2024-03-14T07:12:27.073Z,76.11
2024-03-14T07:13:27.050Z,74.71
2024-03-14T07:14:26.988Z,74.25
2024-03-14T07:15:27.002Z,75.99
2024-03-14T07:16:27.018Z,73.47
2024-03-14T07:17:27.005Z,76.39
2024-03-14T07:18:27.032Z,75.17
2024-03-14T07:19:26.928Z,73.42
2024-03-14T07:20:26.867Z,75.01
2024-03-14T07:21:26.876Z,74.59
2024-03-14T07:22:27.812Z,74.47
2024-03-14T07:23:26.799Z,75.47
2024-03-14T07:24:26.935Z,74.00
2024-03-14T07:25:26.786Z,75.81
2024-03-14T07:26:26.746Z,76.10
2024-03-14T07:27:26.746Z,74.88
2024-03-14T07:28:26.708Z,75.28
2024-03-14T07:29:26.667Z,74.37
2024-03-14T07:30:26.776Z,75.27
2024-03-14T07:31:26.639Z,74.16
2024-03-14T07:32:26.640Z,76.71
2024-03-14T07:33:26.976Z,72.45
2024-03-14T07:34:26.574Z,73.20
2024-03-14T07:35:26.537Z,74.83
2024-03-14T07:36:26.577Z,74.79
2024-03-14T07:37:26.516Z,75.61
2024-03-14T07:38:26.481Z,74.38
2024-03-14T07:39:26.674Z,75.78
2024-03-14T07:40:26.459Z,75.55
2024-03-14T07:41:26.446Z,73.71
2024-03-14T07:42:26.415Z,74.65
2024-03-14T07:43:26.360Z,74.28
2024-03-14T07:44:32.980Z,74.83
2024-03-14T07:45:28.352Z,73.34
2024-03-14T07:46:26.321Z,74.84
2024-03-14T07:47:26.351Z,75.61
2024-03-14T07:48:26.397Z,77.37
2024-03-14T07:49:26.293Z,74.40
2024-03-14T07:50:26.237Z,75.51
2024-03-14T07:51:26.248Z,74.78
2024-03-14T07:52:26.184Z,75.19
2024-03-14T07:53:26.171Z,74.89
2024-03-14T07:54:26.183Z,75.47
2024-03-14T07:55:26.131Z,76.69
2024-03-14T07:56:26.105Z,75.71
2024-03-14T07:57:26.113Z,76.63
2024-03-14T07:58:26.063Z,75.89
2024-03-14T07:59:27.643Z,74.00
2024-03-14T08:00:27.026Z,75.89
2024-03-14T08:01:26.023Z,74.83
2024-03-14T08:02:25.997Z,73.88
2024-03-14T08:03:25.964Z,74.91
2024-03-14T08:04:25.926Z,72.87
2024-03-14T08:05:25.902Z,74.67
2024-03-14T08:06:26.024Z,75.57
2024-03-14T08:07:25.890Z,74.83
2024-03-14T08:08:26.931Z,75.23
2024-03-14T08:09:25.862Z,74.81
2024-03-14T08:10:25.828Z,73.37
2024-03-14T08:11:25.777Z,75.93
2024-03-14T08:12:25.797Z,75.51
2024-03-14T08:13:25.772Z,76.25
2024-03-14T08:14:25.712Z,75.63
2024-03-14T08:15:25.797Z,74.36
2024-03-14T08:16:25.688Z,75.30
2024-03-14T08:17:25.666Z,74.09
2024-03-14T08:18:25.736Z,74.01
2024-03-14T08:19:25.623Z,74.13
2024-03-14T08:20:25.610Z,74.13
2024-03-14T08:21:25.631Z,75.76
2024-03-14T08:22:25.548Z,74.82
2024-03-14T08:23:25.556Z,73.43
2024-03-14T08:24:25.587Z,74.49
2024-03-14T08:25:25.487Z,73.83
2024-03-14T08:26:25.485Z,75.80
2024-03-14T08:27:25.474Z,75.61
2024-03-14T08:28:25.583Z,75.42
2024-03-14T08:29:25.404Z,73.96
2024-03-14T08:30:25.393Z,75.47
2024-03-14T08:31:25.369Z,75.58
2024-03-14T08:32:25.350Z,75.35
2024-03-14T08:33:26.084Z,74.53
2024-03-14T08:34:25.340Z,74.26
2024-03-14T08:35:25.288Z,76.82
2024-03-14T08:36:25.298Z,73.94
2024-03-14T08:37:25.245Z,73.86
2024-03-14T08:38:25.241Z,73.35
2024-03-14T08:39:25.329Z,71.08
2024-03-14T08:40:25.201Z,75.29
2024-03-14T08:41:25.163Z,72.08
2024-03-14T08:42:25.297Z,75.66
2024-03-14T08:43:25.156Z,76.50
2024-03-14T08:44:26.144Z,74.79
2024-03-14T08:45:25.145Z,74.51
2024-03-14T08:46:25.060Z,76.80
2024-03-14T08:47:25.043Z,75.58
2024-03-14T08:48:25.210Z,76.06
2024-03-14T08:49:25.026Z,75.89
2024-03-14T08:50:27.457Z,73.31
2024-03-14T08:51:26.015Z,74.59
2024-03-14T08:52:24.943Z,75.17
2024-03-14T08:53:24.981Z,75.53
2024-03-14T08:54:24.925Z,74.19
2024-03-14T08:55:25.061Z,75.23
2024-03-14T08:56:24.873Z,73.50
2024-03-14T08:57:24.867Z,73.29
2024-03-14T08:58:24.844Z,75.04
2024-03-14T08:59:24.821Z,74.44
2024-03-14T09:00:24.875Z,75.78
2024-03-14T09:01:24.823Z,75.58
2024-03-14T09:02:24.774Z,75.03
2024-03-14T09:03:24.791Z,75.35
2024-03-14T09:04:24.723Z,74.33
2024-03-14T09:05:24.697Z,75.24
2024-03-14T09:06:24.700Z,74.53
2024-03-14T09:07:25.670Z,73.05
2024-03-14T09:08:24.641Z,72.27
2024-03-14T09:09:24.838Z,73.88
2024-03-14T09:10:24.601Z,73.55
2024-03-14T09:11:24.616Z,73.59
2024-03-14T09:12:24.596Z,74.40
2024-03-14T09:13:24.564Z,73.77
2024-03-14T09:14:24.552Z,73.01
2024-03-14T09:15:24.561Z,74.77
2024-03-14T09:16:24.497Z,73.71
2024-03-14T09:17:24.435Z,74.96
2024-03-14T09:18:24.538Z,74.42
2024-03-14T09:19:24.402Z,74.37
2024-03-14T09:20:24.447Z,74.07
2024-03-14T09:21:24.397Z,74.32
2024-03-14T09:22:24.339Z,73.41
2024-03-14T09:23:24.353Z,74.18
2024-03-14T09:24:24.335Z,74.37
2024-03-14T09:25:24.283Z,74.83
2024-03-14T09:26:24.294Z,75.10
2024-03-14T09:27:24.270Z,74.58
2024-03-14T09:28:24.240Z,72.83
2024-03-14T09:29:24.215Z,74.90
2024-03-14T09:30:24.267Z,75.67
2024-03-14T09:31:24.596Z,74.51
2024-03-14T09:32:24.145Z,74.61
2024-03-14T09:33:24.199Z,75.31
2024-03-14T09:34:24.107Z,75.08
2024-03-14T09:35:24.079Z,73.31
2024-03-14T09:36:24.102Z,73.45
2024-03-14T09:37:24.047Z,72.81
2024-03-14T09:38:24.029Z,72.70
2024-03-14T09:39:24.042Z,72.93
2024-03-14T09:40:23.994Z,72.82
2024-03-14T09:41:24.107Z,72.29
2024-03-14T09:42:23.962Z,73.25
2024-03-14T09:43:23.918Z,73.78
2024-03-14T09:44:23.942Z,74.04
2024-03-14T09:45:23.885Z,74.48
2024-03-14T09:46:23.865Z,74.03
2024-03-14T09:47:23.917Z,72.80
2024-03-14T09:48:23.879Z,72.80
2024-03-14T09:49:23.791Z,73.83
2024-03-14T09:50:23.759Z,73.19
2024-03-14T09:51:23.830Z,73.41
2024-03-14T09:52:23.765Z,72.54
2024-03-14T09:53:23.703Z,72.16
2024-03-14T09:54:23.715Z,71.69
2024-03-14T09:55:23.661Z,72.93
2024-03-14T09:56:23.674Z,73.41
2024-03-14T09:57:23.722Z,72.24
2024-03-14T09:58:23.607Z,71.52
2024-03-14T09:59:23.569Z,72.94
2024-03-14T10:00:23.599Z,72.59
2024-03-14T10:01:23.540Z,71.30
2024-03-14T10:02:23.533Z,72.87
2024-03-14T10:03:23.514Z,72.79
2024-03-14T10:04:23.470Z,72.77
2024-03-14T10:05:23.443Z,72.89
2024-03-14T10:06:23.495Z,72.49
2024-03-14T10:07:23.633Z,73.95
2024-03-14T10:08:23.418Z,74.19
2024-03-14T10:09:27.551Z,72.43
2024-03-14T10:10:25.386Z,72.19
2024-03-14T10:11:23.350Z,73.30
2024-03-14T10:12:23.333Z,74.10
2024-03-14T10:13:23.314Z,74.58
2024-03-14T10:14:23.301Z,71.82
2024-03-14T10:15:23.715Z,73.17
2024-03-14T10:16:24.206Z,73.46
2024-03-14T10:17:23.219Z,73.52
2024-03-14T10:18:23.254Z,73.22
2024-03-14T10:19:23.166Z,73.82
2024-03-14T10:20:23.134Z,73.10
2024-03-14T10:21:23.259Z,73.31
2024-03-14T10:22:23.093Z,73.77
2024-03-14T10:23:23.134Z,72.33
2024-03-14T10:24:23.119Z,71.96
2024-03-14T10:25:23.027Z,73.52
2024-03-14T10:26:23.012Z,73.89
2024-03-14T10:27:23.035Z,74.12
2024-03-14T10:28:23.009Z,74.64
2024-03-14T10:29:22.967Z,73.02
2024-03-14T10:30:22.960Z,73.83
2024-03-14T10:31:22.923Z,72.56
2024-03-14T10:32:22.888Z,71.62
2024-03-14T10:33:23.072Z,72.33
2024-03-14T10:34:22.886Z,72.20
2024-03-14T10:35:22.923Z,72.80
2024-03-14T10:36:22.815Z,72.91
2024-03-14T10:37:22.815Z,72.98
2024-03-14T10:38:22.756Z,71.39
2024-03-14T10:39:22.924Z,73.14
2024-03-14T10:40:22.707Z,73.11
2024-03-14T10:41:22.688Z,73.02
2024-03-14T10:42:22.649Z,73.47
2024-03-14T10:43:22.653Z,72.52
2024-03-14T10:44:22.688Z,74.29
2024-03-14T10:45:22.664Z,72.77
2024-03-14T10:46:22.582Z,73.77
2024-03-14T10:47:22.565Z,72.99
2024-03-14T10:48:22.657Z,73.67
2024-03-14T10:49:22.556Z,74.65
2024-03-14T10:50:22.620Z,73.37
2024-03-14T10:51:22.500Z,73.20
2024-03-14T10:52:22.462Z,72.05
2024-03-14T10:53:22.447Z,72.12
2024-03-14T10:54:22.456Z,74.17
2024-03-14T10:55:22.426Z,73.10
2024-03-14T10:56:22.463Z,73.17
2024-03-14T10:57:22.379Z,72.96
2024-03-14T10:58:22.329Z,71.47
2024-03-14T10:59:22.323Z,71.24
2024-03-14T11:00:22.368Z,73.20
2024-03-14T11:01:22.314Z,72.00
2024-03-14T11:02:22.251Z,74.08
2024-03-14T11:03:22.269Z,71.73
2024-03-14T11:04:22.209Z,73.07
2024-03-14T11:05:22.198Z,73.80
2024-03-14T11:06:22.262Z,71.79
2024-03-14T11:07:22.150Z,73.19
2024-03-14T11:08:22.130Z,75.09
2024-03-14T11:09:22.118Z,72.72
2024-03-14T11:10:22.098Z,73.73
2024-03-14T11:11:22.119Z,72.41
2024-03-14T11:12:22.129Z,72.19
2024-03-14T11:13:22.039Z,70.86
2024-03-14T11:14:22.009Z,73.31
2024-03-14T11:15:22.057Z,73.45
2024-03-14T11:16:21.961Z,71.08
2024-03-14T11:17:21.970Z,72.49
2024-03-14T11:18:22.044Z,73.31
2024-03-14T11:19:21.904Z,73.87
2024-03-14T11:20:21.882Z,73.04
2024-03-14T11:21:21.902Z,73.76
2024-03-14T11:22:22.489Z,73.07
2024-03-14T11:23:22.837Z,72.34
2024-03-14T11:24:21.860Z,72.47
2024-03-14T11:25:21.913Z,71.80
2024-03-14T11:26:21.776Z,74.29
2024-03-14T11:27:21.836Z,72.59
2024-03-14T11:28:21.752Z,73.35
2024-03-14T11:29:21.704Z,71.31
2024-03-14T11:30:21.744Z,71.96
2024-03-14T11:31:21.664Z,72.40
2024-03-14T11:32:21.642Z,73.37
2024-03-14T11:33:21.809Z,73.13
2024-03-14T11:34:21.608Z,72.09
2024-03-14T11:35:21.621Z,72.36
2024-03-14T11:36:21.667Z,73.64
2024-03-14T11:37:21.561Z,71.11
2024-03-14T11:38:21.538Z,72.99
2024-03-14T11:39:21.516Z,71.71
2024-03-14T11:40:21.502Z,70.68
2024-03-14T11:41:21.467Z,71.95
2024-03-14T11:42:21.635Z,71.86
2024-03-14T11:43:21.466Z,72.10
2024-03-14T11:44:21.751Z,70.59
2024-03-14T11:45:21.401Z,72.64
2024-03-14T11:46:21.364Z,73.41
2024-03-14T11:47:21.336Z,73.42
2024-03-14T11:48:21.470Z,71.89
2024-03-14T11:49:21.314Z,73.12
2024-03-14T11:50:21.297Z,73.31
2024-03-14T11:51:21.319Z,71.72
2024-03-14T11:52:21.249Z,73.35
2024-03-14T11:53:21.229Z,72.52
2024-03-14T11:54:21.272Z,73.44
2024-03-14T11:55:21.190Z,73.33
2024-03-14T11:56:21.168Z,73.57
2024-03-14T11:57:21.209Z,73.69
2024-03-14T11:58:21.113Z,72.61
2024-03-14T11:59:21.175Z,74.27
2024-03-14T12:00:21.089Z,73.28
2024-03-14T12:01:28.027Z,72.49
2024-03-14T12:02:22.641Z,72.39
2024-03-14T12:03:22.062Z,73.55
2024-03-14T12:04:21.012Z,72.69
2024-03-14T12:05:21.100Z,72.15
2024-03-14T12:06:21.006Z,70.50
2024-03-14T12:07:20.973Z,72.60
2024-03-14T12:08:20.950Z,70.94
2024-03-14T12:09:21.050Z,72.88
2024-03-14T12:10:20.921Z,71.93
2024-03-14T12:11:20.899Z,74.53
2024-03-14T12:12:20.938Z,72.90
2024-03-14T12:13:20.827Z,73.10
2024-03-14T12:14:20.810Z,73.54
2024-03-14T12:15:20.868Z,71.47
2024-03-14T12:16:20.790Z,71.68
2024-03-14T12:17:20.745Z,72.35
2024-03-14T12:18:20.768Z,74.36
2024-03-14T12:19:20.696Z,72.46
2024-03-14T12:20:20.771Z,74.32
2024-03-14T12:21:20.724Z,72.41
2024-03-14T12:22:20.628Z,71.59
2024-03-14T12:23:20.635Z,73.63
2024-03-14T12:24:20.605Z,72.69
2024-03-14T12:25:20.608Z,72.90
2024-03-14T12:26:20.583Z,72.42
2024-03-14T12:27:20.555Z,72.66
2024-03-14T12:28:20.583Z,75.11
2024-03-14T12:29:20.491Z,75.36
2024-03-14T12:30:20.608Z,74.08
2024-03-14T12:31:20.463Z,73.59
2024-03-14T12:32:20.431Z,72.13
2024-03-14T12:33:20.430Z,73.05
2024-03-14T12:34:20.376Z,73.18
2024-03-14T12:35:21.387Z,73.01
2024-03-14T12:36:20.563Z,71.87
2024-03-14T12:37:20.335Z,73.81
2024-03-14T12:38:20.306Z,73.66
2024-03-14T12:39:20.341Z,73.87
2024-03-14T12:40:22.548Z,73.35
2024-03-14T12:41:20.387Z,73.11
2024-03-14T12:42:20.290Z,73.18
2024-03-14T12:43:20.202Z,72.92
2024-03-14T12:44:20.179Z,72.54
2024-03-14T12:45:20.194Z,73.28
2024-03-14T12:46:20.172Z,73.73
2024-03-14T12:47:20.132Z,73.25
2024-03-14T12:48:20.146Z,72.62
2024-03-14T12:49:20.099Z,74.87
2024-03-14T12:50:21.057Z,72.95
2024-03-14T12:51:20.154Z,70.11
2024-03-14T12:52:20.596Z,72.21